CST,Max TemperatureF,Mean TemperatureF,Min TemperatureF,Max Dew PointF,MeanDew PointF,Min DewpointF,Max Humidity, Mean Humidity, Min Humidity, Max Sea Level PressureIn, Mean Sea Level PressureIn, Min Sea Level PressureIn, Max VisibilityMiles, Mean VisibilityMiles, Min VisibilityMiles, Max Wind SpeedMPH, Mean Wind SpeedMPH, Max Gust SpeedMPH,PrecipitationIn, CloudCover, Events, WindDirDegrees
2014-1-1,50,39,28,34,25,18,69,56,43,30.34,30.16,29.96,10,10,10,10,6,,0.00,2,,165
2014-1-2,44,35,26,34,21,12,70,61,51,30.26,30.09,29.93,10,9,2,23,8,30,0.07,8,,335
2014-1-3,,,,,,,,,,,,,,,,,,,,,,
2014-1-4,,,,,,,,,,,,,,,,,,,,,,
2014-1-5,,,,,,,,,,,,,,,,,,,,,,
2014-1-6,,,,,,,,,,,,,,,,,,,,,,
2014-1-7,,,,,,,,,,,,,,,,,,,,,,
2014-1-8,,,,,,,,,,,,,,,,,,,,,,
2014-1-9,,,,,,,,,,,,,,,,,,,,,,
2014-1-10,,,,,,,,,,,,,,,,,,,,,,
2014-1-11,,,,,,,,,,,,,,,,,,,,,,
2014-1-12,,,,,,,,,,,,,,,,,,,,,,
2014-1-13,53,48,41,45,40,27,76,69,53,29.93,29.84,29.77,10,9,1,10,7,16,0.07,6,,238
2014-1-14,57,44,32,34,26,12,70,51,33,30.12,29.98,29.89,10,10,10,23,6,29,0.00,1,,258
2014-1-15,39,32,24,12,11,9,59,45,33,30.24,30.18,30.12,10,10,10,15,7,22,0.00,2,,307
2014-1-16,50,37,24,27,18,10,56,47,36,30.12,29.94,29.82,10,10,10,22,8,30,0.00,3,,211
2014-1-17,37,28,19,21,11,3,63,47,37,30.20,30.09,29.90,10,10,10,22,10,33,0.00,4,,301
2014-1-18,51,35,19,27,16,7,63,45,30,30.18,29.98,29.78,10,10,10,22,6,37,0.00,4,,214
2014-1-19,48,38,28,25,20,16,60,47,34,30.21,30.08,29.95,10,10,10,14,8,20,0.00,1,,252
2014-1-20,62,50,37,30,25,19,53,40,27,30.00,29.93,29.86,10,10,10,16,9,21,0.00,0,,270
2014-1-21,41,29,17,25,10,1,65,49,40,30.32,30.19,29.94,10,10,7,30,12,39,0.00,4,,346
2014-1-22,37,27,17,16,8,3,59,48,35,30.26,30.20,30.10,10,10,10,18,6,23,0.00,4,,217
2014-1-23,32,21,10,12,-3,-8,50,39,32,30.80,30.61,30.26,10,10,10,23,12,28,0.00,0,,2
2014-1-24,30,18,6,1,-3,-8,56,38,25,30.79,30.50,30.08,10,10,10,14,4,22,0.00,0,,202
2014-1-25,51,40,30,25,13,1,45,34,28,30.07,29.95,29.89,10,10,10,23,13,31,0.00,3,,264
2014-1-26,60,42,24,32,22,3,54,39,30,29.99,29.82,29.72,10,10,10,24,7,34,0.00,0,,202
2014-1-27,44,30,17,28,2,-8,57,37,26,30.46,30.26,29.83,10,10,10,29,14,45,0.00,3,,6
2014-1-28,19,14,8,-6,-8,-11,48,35,28,30.52,30.46,30.41,10,10,10,20,11,24,0.00,1,,10
2014-1-29,32,19,6,3,-1,-6,62,41,27,30.50,30.41,30.30,10,10,10,13,2,16,0.00,0,,191
2014-1-30,44,32,19,9,3,0,46,32,18,30.30,30.15,30.02,10,10,10,17,7,26,0.00,1,,171
2014-1-31,48,40,35,30,21,9,75,49,30,30.13,30.05,29.96,10,10,4,10,5,,0.00,8,,113